createdAt,value
2019-04-11T00:02:07.002Z,16.77
2019-04-11T00:04:37.950Z,15.60
2019-04-11T00:07:08.847Z,15.80
2019-04-11T00:09:40.794Z,17.50
2019-04-11T00:12:11.128Z,14.37
2019-04-11T00:14:42.192Z,13.47
2019-04-11T00:17:13.839Z,11.80
2019-04-11T00:19:45.396Z,12.30
2019-04-11T00:22:17.406Z,13.90
2019-04-11T00:24:49.188Z,13.40
2019-04-11T00:27:21.142Z,14.50
2019-04-11T00:29:51.754Z,11.50
2019-04-11T00:32:23.357Z,12.30
2019-04-11T00:34:55.365Z,14.60
2019-04-11T00:37:27.289Z,11.13
2019-04-11T00:39:59.669Z,12.00
2019-04-11T00:42:30.501Z,11.73
2019-04-11T00:45:01.172Z,11.80
2019-04-11T00:47:31.834Z,11.90
2019-04-11T00:50:04.066Z,12.73
2019-04-11T00:52:35.066Z,13.57
2019-04-11T00:55:07.079Z,14.90
2019-04-11T00:57:37.757Z,14.10
2019-04-11T01:00:09.078Z,12.90
2019-04-11T01:02:41.801Z,13.37
2019-04-11T01:05:13.437Z,15.80
2019-04-11T01:07:44.039Z,14.03
2019-04-11T01:10:16.206Z,14.13
2019-04-11T01:12:47.009Z,13.03
2019-04-11T01:15:20.318Z,14.77
2019-04-11T01:17:51.735Z,19.50
2019-04-11T01:20:23.704Z,19.03
2019-04-11T01:22:56.395Z,18.90
2019-04-11T01:25:28.520Z,15.87
2019-04-11T01:28:00.547Z,18.10
2019-04-11T01:30:38.904Z,16.77
2019-04-11T01:33:10.863Z,24.40
2019-04-11T01:35:43.648Z,27.33
2019-04-11T01:38:14.999Z,25.27
2019-04-11T01:40:45.803Z,25.93
2019-04-11T01:43:16.742Z,25.73
2019-04-11T01:45:47.586Z,28.43
2019-04-11T01:48:37.493Z,28.80
2019-04-11T01:51:09.632Z,27.60
2019-04-11T01:53:41.007Z,27.30
2019-04-11T01:56:13.428Z,26.77
2019-04-11T01:58:44.275Z,24.23
2019-04-11T02:01:36.913Z,24.80
2019-04-11T02:04:17.349Z,22.60
2019-04-11T02:06:48.201Z,20.53
2019-04-11T02:09:19.921Z,22.90
2019-04-11T02:11:52.147Z,21.37
2019-04-11T02:14:24.050Z,20.40
2019-04-11T02:16:54.806Z,22.23
2019-04-11T02:19:25.980Z,19.70
2019-04-11T02:22:06.316Z,21.03
2019-04-11T02:24:50.163Z,21.10
2019-04-11T02:27:25.986Z,22.00
2019-04-11T02:29:56.897Z,24.50
2019-04-11T02:32:29.280Z,24.47
2019-04-11T02:35:02.517Z,24.63
2019-04-11T02:37:34.388Z,25.70
2019-04-11T02:40:05.498Z,26.40
2019-04-11T02:42:36.637Z,25.80
2019-04-11T02:45:22.802Z,23.77
2019-04-11T02:47:43.446Z,25.70
2019-04-11T02:50:16.143Z,25.53
2019-04-11T02:52:44.899Z,27.77
2019-04-11T02:55:17.086Z,24.10
2019-04-11T02:57:48.372Z,24.10
2019-04-11T03:00:20.869Z,23.03
2019-04-11T03:02:53.357Z,23.20
2019-04-11T03:05:24.730Z,22.07
2019-04-11T03:07:56.427Z,19.50
2019-04-11T03:10:29.035Z,17.03
2019-04-11T03:13:00.772Z,17.90
2019-04-11T03:15:51.023Z,15.33
2019-04-11T03:18:08.664Z,15.93
2019-04-11T03:20:45.944Z,14.47
2019-04-11T03:23:13.816Z,12.60
2019-04-11T03:25:42.881Z,13.90
2019-04-11T03:28:19.248Z,13.50
2019-04-11T03:31:13.741Z,13.83
2019-04-11T03:36:51.274Z,13.40
2019-04-11T03:38:48.215Z,13.73
2019-04-11T03:41:17.402Z,14.00
2019-04-11T03:43:42.267Z,16.67
2019-04-11T03:46:25.031Z,20.33
2019-04-11T03:48:50.720Z,18.50
2019-04-11T03:51:11.065Z,21.33
2019-04-11T03:53:43.213Z,18.10
2019-04-11T03:56:16.237Z,16.43
2019-04-11T03:58:48.285Z,17.83
2019-04-11T04:01:21.231Z,16.80
2019-04-11T04:03:53.975Z,17.97
2019-04-11T04:06:25.747Z,17.33
2019-04-11T04:08:58.286Z,18.07
2019-04-11T04:11:30.477Z,20.03
2019-04-11T04:14:21.108Z,18.67
2019-04-11T04:17:23.631Z,22.03
2019-04-11T04:20:05.351Z,18.60
2019-04-11T04:23:00.901Z,19.17
2019-04-11T04:25:34.732Z,17.17
2019-04-11T04:28:07.343Z,16.37
2019-04-11T04:30:38.898Z,19.53
2019-04-11T04:33:12.394Z,16.67
2019-04-11T04:35:44.610Z,15.13
2019-04-11T04:38:15.737Z,16.57
2019-04-11T04:41:05.898Z,15.90
2019-04-11T04:43:25.170Z,15.30
2019-04-11T04:46:11.521Z,13.17
2019-04-11T04:48:29.952Z,15.63
2019-04-11T04:51:05.847Z,13.83
2019-04-11T04:53:33.563Z,14.60
2019-04-11T04:56:04.745Z,15.40
2019-04-11T04:58:35.365Z,17.13
2019-04-11T05:01:07.012Z,17.03
2019-04-11T05:03:38.002Z,17.90
2019-04-11T05:06:10.117Z,14.67
2019-04-11T05:08:41.047Z,15.00
2019-04-11T05:11:11.944Z,15.10
2019-04-11T05:13:46.312Z,15.87
2019-04-11T05:16:17.686Z,14.87
2019-04-11T05:18:48.483Z,14.60
2019-04-11T05:21:19.134Z,14.67
2019-04-11T05:23:50.229Z,15.60
2019-04-11T05:26:21.553Z,16.77
2019-04-11T05:28:53.012Z,16.23
2019-04-11T05:31:24.729Z,16.67
2019-04-11T05:33:56.079Z,16.73
2019-04-11T05:36:26.766Z,14.97
2019-04-11T05:38:58.255Z,14.30
2019-04-11T05:41:29.353Z,14.77
2019-04-11T05:44:03.145Z,15.50
2019-04-11T05:46:40.884Z,15.70
2019-04-11T05:49:11.338Z,15.57
2019-04-11T05:51:46.239Z,12.83
2019-04-11T05:54:16.444Z,15.37
2019-04-11T05:56:52.126Z,17.67
2019-04-11T05:59:23.892Z,14.60
2019-04-11T06:02:04.377Z,13.10
2019-04-11T06:04:40.578Z,14.17
2019-04-11T06:07:27.246Z,13.97
2019-04-11T06:10:06.036Z,11.07
2019-04-11T06:12:54.729Z,10.93
2019-04-11T06:15:31.282Z,10.50
2019-04-11T06:18:04.912Z,10.67
2019-04-11T06:20:43.809Z,12.53
2019-04-11T06:23:37.179Z,11.60
2019-04-11T06:26:40.963Z,12.57
2019-04-11T06:29:22.888Z,8.20
2019-04-11T06:32:00.362Z,9.30
2019-04-11T06:34:33.354Z,7.97
2019-04-11T06:37:22.520Z,8.33
2019-04-11T06:39:58.277Z,9.47
2019-04-11T06:42:43.498Z,10.80
2019-04-11T06:45:31.805Z,13.00
2019-04-11T06:48:13.506Z,10.60
2019-04-11T06:50:58.361Z,11.23
2019-04-11T06:53:36.462Z,11.80
2019-04-11T06:56:25.374Z,11.63
2019-04-11T10:56:26.364Z,16.17
2019-04-11T10:58:59.536Z,16.50
2019-04-11T11:01:56.095Z,17.00
2019-04-11T11:04:52.704Z,18.13
2019-04-11T11:07:29.261Z,19.00
2019-04-11T11:10:12.130Z,18.70
2019-04-11T11:13:02.345Z,20.47
2019-04-11T11:15:55.903Z,17.73
2019-04-11T11:19:19.459Z,18.60
2019-04-11T11:21:28.584Z,19.80
2019-04-11T11:24:33.835Z,15.67
2019-04-11T11:27:07.270Z,15.03
2019-04-11T11:29:47.393Z,16.20
2019-04-11T11:32:22.984Z,17.63
2019-04-11T11:34:58.938Z,19.87
2019-04-11T11:37:49.294Z,19.63
2019-04-11T11:40:41.152Z,19.27
2019-04-11T11:43:30.958Z,19.33
2019-04-11T11:46:40.424Z,17.50
2019-04-11T11:49:32.572Z,20.27
2019-04-11T11:52:11.083Z,23.70
2019-04-11T11:54:50.031Z,21.80
2019-04-11T11:57:35.068Z,18.97
2019-04-11T12:00:14.893Z,18.30
2019-04-11T12:02:52.977Z,17.83
2019-04-11T12:05:39.122Z,16.30
2019-04-11T12:08:20.329Z,18.57
2019-04-11T12:10:53.455Z,18.87
2019-04-11T12:13:45.752Z,18.73
2019-04-11T12:16:21.366Z,18.63
2019-04-11T12:19:00.544Z,16.40
2019-04-11T12:21:34.676Z,19.33
2019-04-11T12:24:30.250Z,21.60
2019-04-11T12:27:28.789Z,21.30
2019-04-11T12:30:23.913Z,19.07
2019-04-11T12:33:27.966Z,16.93
2019-04-11T12:36:12.611Z,20.77
2019-04-11T12:39:02.071Z,20.67
2019-04-11T12:41:37.292Z,23.67
2019-04-11T12:44:30.303Z,23.70
2019-04-11T12:47:24.725Z,25.03
2019-04-11T12:50:13.113Z,24.27
2019-04-11T12:53:05.443Z,20.17
2019-04-11T12:55:53.904Z,21.00
2019-04-11T12:58:27.836Z,20.70
2019-04-11T13:01:27.432Z,21.80
2019-04-11T13:04:15.158Z,18.03
2019-04-11T13:06:58.881Z,16.67
2019-04-11T13:10:00.361Z,17.67
2019-04-11T13:12:48.029Z,15.20
2019-04-11T13:15:34.713Z,16.10
2019-04-11T13:18:39.128Z,17.40
2019-04-11T13:21:13.617Z,18.93
2019-04-11T13:24:09.377Z,15.90
2019-04-11T13:27:10.915Z,14.43
2019-04-11T13:30:04.770Z,15.57
2019-04-11T13:32:50.282Z,18.10
2019-04-11T13:35:59.125Z,17.57
2019-04-11T13:38:35.065Z,16.87
2019-04-11T13:41:25.659Z,18.80
2019-04-11T13:44:09.958Z,17.07
2019-04-11T13:46:59.605Z,17.80
2019-04-11T13:49:37.407Z,20.30
2019-04-11T13:52:26.793Z,19.93
2019-04-11T13:55:19.498Z,20.87
2019-04-11T13:58:09.765Z,20.80
2019-04-11T14:00:50.248Z,21.30
2019-04-11T14:03:45.676Z,22.27
2019-04-11T14:06:22.656Z,17.97
2019-04-11T14:09:24.491Z,19.37
2019-04-11T14:11:56.582Z,19.40
2019-04-11T14:14:32.926Z,22.23
2019-04-11T14:17:21.902Z,23.23
2019-04-11T14:20:13.619Z,20.03
2019-04-11T14:23:14.762Z,20.87
2019-04-11T14:26:00.964Z,20.80
2019-04-11T14:28:38.056Z,19.33
2019-04-11T14:31:25.785Z,21.73
2019-04-11T14:34:01.282Z,20.87
2019-04-11T14:36:55.617Z,20.77
2019-04-11T14:39:27.322Z,23.47
2019-04-11T14:42:13.297Z,21.70
2019-04-11T14:44:43.903Z,18.40
2019-04-11T14:47:34.767Z,20.50
2019-04-11T14:50:05.501Z,18.83
2019-04-11T14:52:54.719Z,21.50
2019-04-11T14:55:26.441Z,19.20
2019-04-11T14:58:12.291Z,19.73
2019-04-11T15:00:43.586Z,19.20
2019-04-11T15:03:31.579Z,22.00
2019-04-11T15:06:31.321Z,18.23
2019-04-11T15:09:31.398Z,20.67
2019-04-11T15:12:19.666Z,21.70
2019-04-11T15:15:11.698Z,22.93
2019-04-11T15:17:43.693Z,25.10
2019-04-11T15:20:28.170Z,22.43
2019-04-11T15:23:06.988Z,21.97
2019-04-11T15:25:56.724Z,20.53
2019-04-11T15:28:43.707Z,21.97
2019-04-11T15:31:38.717Z,23.50
2019-04-11T15:34:13.201Z,24.60
2019-04-11T15:36:49.421Z,19.90
2019-04-11T15:39:57.950Z,25.40
2019-04-11T15:42:47.319Z,17.10
2019-04-11T15:45:36.641Z,15.30
2019-04-11T15:48:25.753Z,15.27
2019-04-11T15:51:26.444Z,16.40
2019-04-11T15:54:13.950Z,17.70
2019-04-11T15:57:03.518Z,16.83
2019-04-11T15:59:54.260Z,21.77
2019-04-11T16:02:46.464Z,17.27
2019-04-11T16:05:50.893Z,20.67
2019-04-11T16:08:30.260Z,16.57
2019-04-11T16:11:18.493Z,21.70
2019-04-11T16:14:06.832Z,21.50
2019-04-11T16:17:14.036Z,19.90
2019-04-11T16:19:52.072Z,22.47
2019-04-11T16:22:47.480Z,24.57
2019-04-11T16:25:28.925Z,24.23
2019-04-11T16:28:25.283Z,22.83
2019-04-11T16:30:57.684Z,28.50
2019-04-11T16:33:46.184Z,25.07
2019-04-11T16:36:39.818Z,25.03
2019-04-11T16:39:33.074Z,21.50
2019-04-11T16:42:05.791Z,24.03
2019-04-11T16:44:55.220Z,26.97
2019-04-11T16:47:43.308Z,30.37
2019-04-11T16:50:14.252Z,32.17
2019-04-11T16:52:45.406Z,25.77
2019-04-11T16:55:15.830Z,25.60
2019-04-11T16:57:47.340Z,24.80
2019-04-11T17:00:20.332Z,25.07
2019-04-11T17:02:52.647Z,22.70
2019-04-11T17:05:24.097Z,20.07
2019-04-11T17:08:12.645Z,21.90
2019-04-11T17:11:05.048Z,29.23
2019-04-11T17:13:35.477Z,35.40
2019-04-11T17:16:08.328Z,30.10
2019-04-11T17:18:38.552Z,23.50
2019-04-11T17:21:08.885Z,28.30
2019-04-11T17:23:39.593Z,33.73
2019-04-11T17:26:10.016Z,36.17
2019-04-11T17:28:43.279Z,42.23
2019-04-11T17:31:13.734Z,36.03
2019-04-11T17:33:44.424Z,36.90
2019-04-11T17:36:14.955Z,31.67
2019-04-11T17:38:45.217Z,39.97
2019-04-11T17:41:15.905Z,34.30
2019-04-11T17:43:47.033Z,34.83
2019-04-11T17:46:19.013Z,31.97
2019-04-11T17:48:50.568Z,31.10
2019-04-11T17:51:22.635Z,27.97
2019-04-11T17:53:55.531Z,26.33
2019-04-11T17:56:25.649Z,31.80
2019-04-11T17:58:58.092Z,38.00
2019-04-11T18:01:28.557Z,38.37
2019-04-11T18:03:58.916Z,32.83
2019-04-11T18:06:29.055Z,27.47
2019-04-11T18:08:59.504Z,25.10
2019-04-11T18:11:30.042Z,26.63
2019-04-11T18:14:00.986Z,26.10
2019-04-11T18:16:32.134Z,25.00
2019-04-11T18:19:05.821Z,28.10
2019-04-11T18:21:37.181Z,30.40
2019-04-11T18:24:07.979Z,28.23
2019-04-11T18:26:38.343Z,30.80
2019-04-11T18:29:08.686Z,38.10
2019-04-11T18:31:39.216Z,39.80
2019-04-11T18:34:09.536Z,36.37
2019-04-11T18:36:39.722Z,28.17
2019-04-11T18:39:10.515Z,30.93
2019-04-11T18:41:40.822Z,23.17
2019-04-11T18:44:11.265Z,22.93
2019-04-11T18:46:42.842Z,29.90
2019-04-11T18:49:13.295Z,27.17
2019-04-11T18:51:43.259Z,27.43
2019-04-11T18:54:14.790Z,26.07
2019-04-11T18:56:46.229Z,22.07
2019-04-11T18:59:16.394Z,23.00
2019-04-11T19:01:47.464Z,22.33
2019-04-11T19:04:17.846Z,19.73
2019-04-11T19:06:48.166Z,28.00
2019-04-11T19:09:19.568Z,31.00
2019-04-11T19:11:52.195Z,26.60
2019-04-11T19:14:24.968Z,26.67
2019-04-11T19:16:58.510Z,24.53
2019-04-11T19:19:28.728Z,23.70
2019-04-11T19:21:59.914Z,26.90
2019-04-11T19:24:35.607Z,30.13
2019-04-11T19:27:02.656Z,29.57
2019-04-11T19:29:32.808Z,32.87
2019-04-11T19:32:03.092Z,36.90
2019-04-11T19:34:33.412Z,40.83
2019-04-11T19:37:04.023Z,30.00
2019-04-11T19:39:35.107Z,30.50
2019-04-11T19:42:08.974Z,29.80
2019-04-11T19:44:49.370Z,30.37
2019-04-11T19:47:21.364Z,33.90
2019-04-11T19:49:51.690Z,29.60
2019-04-11T19:52:26.536Z,21.90
2019-04-11T19:55:04.701Z,20.70
2019-04-11T19:57:38.265Z,21.10
2019-04-11T20:00:10.816Z,19.30
2019-04-11T20:02:44.546Z,18.93
2019-04-11T20:05:15.630Z,20.03
2019-04-11T20:07:46.976Z,20.40
2019-04-11T20:10:18.882Z,19.70
2019-04-11T20:12:49.718Z,20.73
2019-04-11T20:15:22.144Z,21.33
2019-04-11T20:17:55.480Z,22.90
2019-04-11T20:20:25.982Z,25.27
2019-04-11T20:22:59.109Z,24.30
2019-04-11T20:25:30.884Z,26.70
2019-04-11T20:28:01.988Z,25.77
2019-04-11T20:30:32.422Z,27.20
2019-04-11T20:33:03.711Z,24.87
2019-04-11T20:35:34.062Z,25.37
2019-04-11T20:38:04.884Z,28.00
2019-04-11T20:40:36.569Z,25.10
2019-04-11T20:43:10.042Z,26.37
2019-04-11T20:45:41.151Z,25.03
2019-04-11T20:48:11.689Z,24.47
2019-04-11T20:50:42.009Z,23.83
2019-04-11T20:53:13.339Z,22.00
2019-04-11T20:55:44.795Z,22.57
2019-04-11T20:58:26.545Z,23.47
2019-04-11T21:03:31.982Z,27.40
2019-04-11T21:06:03.079Z,27.93
2019-04-11T21:08:36.624Z,27.13
2019-04-11T21:11:06.839Z,31.00
2019-04-11T21:13:38.372Z,31.57
2019-04-11T21:16:14.125Z,29.67
2019-04-11T21:18:45.017Z,31.20
2019-04-11T21:21:16.189Z,33.10
2019-04-11T21:23:46.771Z,37.10
2019-04-11T21:26:17.301Z,36.53
2019-04-11T21:28:48.894Z,33.20
2019-04-11T21:31:20.061Z,37.97
2019-04-11T21:33:50.989Z,41.60
2019-04-11T21:36:21.639Z,36.70
2019-04-11T21:39:03.561Z,30.00
2019-04-11T21:41:36.051Z,26.23
2019-04-11T21:44:06.063Z,27.60
2019-04-11T21:46:38.087Z,29.27
2019-04-11T21:49:10.915Z,26.80
2019-04-11T21:51:44.426Z,27.90
2019-04-11T21:54:15.863Z,27.37
2019-04-11T21:56:49.286Z,26.10
2019-04-11T21:59:20.319Z,25.50
2019-04-11T22:01:53.850Z,26.43
2019-04-11T22:04:26.912Z,28.43
2019-04-11T22:06:55.965Z,30.23
2019-04-11T22:09:26.600Z,30.50
2019-04-11T22:11:57.006Z,30.70
2019-04-11T22:14:27.342Z,29.37
2019-04-11T22:16:57.604Z,30.33
2019-04-11T22:19:27.835Z,27.10
2019-04-11T22:21:58.304Z,27.87
2019-04-11T22:24:28.846Z,29.20
2019-04-11T22:26:59.652Z,29.60
2019-04-11T22:29:30.143Z,31.90
2019-04-11T22:32:00.706Z,34.60
2019-04-11T22:34:43.029Z,35.57
2019-04-11T22:37:13.889Z,35.87
2019-04-11T22:39:44.359Z,36.30
2019-04-11T22:42:14.924Z,32.67
2019-04-11T22:44:45.261Z,33.33
2019-04-11T22:47:15.695Z,31.97
2019-04-11T22:49:46.508Z,38.63
2019-04-11T22:52:16.667Z,44.67
2019-04-11T22:54:47.298Z,39.40
2019-04-11T22:57:17.702Z,34.07
2019-04-11T22:59:48.122Z,31.40
2019-04-11T23:02:52.747Z,31.70
2019-04-11T23:05:22.961Z,38.87
2019-04-11T23:07:53.176Z,44.13
2019-04-11T23:10:23.504Z,42.43
2019-04-11T23:12:54.027Z,36.70
2019-04-11T23:15:24.399Z,34.00
2019-04-11T23:17:55.007Z,34.23
2019-04-11T23:20:26.700Z,31.17
2019-04-11T23:22:57.027Z,32.53
2019-04-11T23:25:27.515Z,33.00
2019-04-11T23:27:58.185Z,29.07
2019-04-11T23:30:28.752Z,24.80
2019-04-11T23:33:00.531Z,20.03
2019-04-11T23:35:30.934Z,14.20
2019-04-11T23:38:01.377Z,10.03
2019-04-11T23:40:31.934Z,10.20
2019-04-11T23:43:02.536Z,9.30
2019-04-11T23:45:33.290Z,9.43
2019-04-11T23:48:03.997Z,9.20
2019-04-11T23:50:34.385Z,9.20
2019-04-11T23:53:04.970Z,10.13
2019-04-11T23:55:35.506Z,12.13
2019-04-11T23:58:05.924Z,14.70
